createdAt,value
2022-12-17T00:00:51.715Z,1011.25
2022-12-17T00:03:51.797Z,1011.27
2022-12-17T00:06:51.716Z,1011.28
2022-12-17T00:09:51.702Z,1011.31
2022-12-17T00:12:51.704Z,1011.38
2022-12-17T00:15:51.743Z,1011.4
2022-12-17T00:18:51.706Z,1011.39
2022-12-17T00:21:51.702Z,1011.39
2022-12-17T00:24:51.706Z,1011.38
2022-12-17T00:27:51.707Z,1011.38
2022-12-17T00:30:51.700Z,1011.43
2022-12-17T00:33:51.700Z,1011.47
2022-12-17T00:36:51.703Z,1011.45
2022-12-17T00:39:56.183Z,1011.47
2022-12-17T00:42:51.699Z,1011.54
2022-12-17T00:45:51.698Z,1011.57
2022-12-17T00:48:51.694Z,1011.61
2022-12-17T00:51:51.694Z,1011.59
2022-12-17T00:54:51.691Z,1011.63
2022-12-17T00:57:51.695Z,1011.62
2022-12-17T01:00:51.708Z,1011.68
2022-12-17T01:03:51.679Z,1011.69
2022-12-17T01:06:51.690Z,1011.7
2022-12-17T01:09:51.683Z,1011.73
2022-12-17T01:12:51.688Z,1011.72
2022-12-17T01:15:51.690Z,1011.74
2022-12-17T01:18:51.680Z,1011.77
2022-12-17T01:21:51.684Z,1011.82
2022-12-17T01:24:51.679Z,1011.9
2022-12-17T01:27:51.685Z,1011.92
2022-12-17T01:30:51.678Z,1011.95
2022-12-17T01:33:51.672Z,1012.01
2022-12-17T01:36:51.677Z,1012.08
2022-12-17T01:39:51.671Z,1012.09
2022-12-17T01:42:51.668Z,1012.17
2022-12-17T01:45:51.745Z,1012.22
2022-12-17T01:48:51.671Z,1012.28
2022-12-17T01:51:51.678Z,1012.33
2022-12-17T01:54:51.680Z,1012.32
2022-12-17T01:57:51.661Z,1012.35
2022-12-17T02:00:51.732Z,1012.3
2022-12-17T02:03:51.665Z,1012.31
2022-12-17T02:06:51.675Z,1012.28
2022-12-17T02:09:51.670Z,1012.35
2022-12-17T02:12:51.664Z,1012.41
2022-12-17T02:15:51.669Z,1012.44
2022-12-17T02:18:51.661Z,1012.47
2022-12-17T02:21:51.661Z,1012.5
2022-12-17T02:24:51.670Z,1012.48
2022-12-17T02:27:51.659Z,1012.5
2022-12-17T02:30:51.688Z,1012.49
2022-12-17T02:33:51.660Z,1012.51
2022-12-17T02:36:51.661Z,1012.55
2022-12-17T02:39:51.652Z,1012.57
2022-12-17T02:42:51.656Z,1012.6
2022-12-17T02:45:51.718Z,1012.63
2022-12-17T02:48:51.643Z,1012.68
2022-12-17T02:51:51.649Z,1012.7
2022-12-17T02:54:51.644Z,1012.72
2022-12-17T02:57:53.889Z,1012.69
2022-12-17T03:00:51.664Z,1012.72
2022-12-17T03:03:51.652Z,1012.7
2022-12-17T03:06:51.646Z,1012.73
2022-12-17T03:09:51.645Z,1012.75
2022-12-17T03:12:51.648Z,1012.73
2022-12-17T03:15:51.645Z,1012.78
2022-12-17T03:18:51.640Z,1012.82
2022-12-17T03:21:51.647Z,1012.85
2022-12-17T03:24:51.644Z,1012.92
2022-12-17T03:27:51.648Z,1012.95
2022-12-17T03:30:51.691Z,1012.94
2022-12-17T03:33:51.645Z,1012.97
2022-12-17T03:36:51.642Z,1013.02
2022-12-17T03:39:51.647Z,1013.03
2022-12-17T03:42:51.642Z,1013.02
2022-12-17T03:45:51.721Z,1013.05
2022-12-17T03:48:51.648Z,1013.13
2022-12-17T03:51:51.637Z,1013.14
2022-12-17T03:54:51.644Z,1013.2
2022-12-17T03:57:51.636Z,1013.19
2022-12-17T04:00:51.634Z,1013.23
2022-12-17T04:03:51.642Z,1013.18
2022-12-17T04:06:51.643Z,1013.14
2022-12-17T04:09:51.639Z,1013.09
2022-12-17T04:12:51.635Z,1013.12
2022-12-17T04:15:51.661Z,1013.14
2022-12-17T04:18:51.632Z,1013.18
2022-12-17T04:21:51.635Z,1013.27
2022-12-17T04:24:51.633Z,1013.31
2022-12-17T04:27:51.629Z,1013.32
2022-12-17T04:30:51.649Z,1013.41
2022-12-17T04:33:51.621Z,1013.45
2022-12-17T04:36:51.621Z,1013.47
2022-12-17T04:39:51.622Z,1013.47
2022-12-17T04:42:51.622Z,1013.44
2022-12-17T04:45:51.658Z,1013.46
2022-12-17T04:48:51.618Z,1013.52
2022-12-17T04:51:51.619Z,1013.56
2022-12-17T04:54:51.619Z,1013.61
2022-12-17T04:57:51.622Z,1013.59
2022-12-17T05:00:51.618Z,1013.62
2022-12-17T05:03:51.639Z,1013.66
2022-12-17T05:06:51.616Z,1013.63
2022-12-17T05:09:51.615Z,1013.69
2022-12-17T05:12:51.612Z,1013.71
2022-12-17T05:15:53.367Z,1013.71
2022-12-17T05:18:51.628Z,1013.76
2022-12-17T05:21:51.611Z,1013.79
2022-12-17T05:24:51.623Z,1013.85
2022-12-17T05:27:51.616Z,1013.82
2022-12-17T05:30:51.701Z,1013.84
2022-12-17T05:33:51.611Z,1013.9
2022-12-17T05:36:51.614Z,1013.94
2022-12-17T05:39:51.615Z,1013.98
2022-12-17T05:42:51.608Z,1014.05
2022-12-17T05:45:51.605Z,1014.07
2022-12-17T05:48:51.618Z,1014.11
2022-12-17T05:51:51.603Z,1014.1
2022-12-17T05:54:51.603Z,1014.11
2022-12-17T05:57:56.116Z,1014.14
2022-12-17T06:00:51.602Z,1014.22
2022-12-17T06:03:51.741Z,1014.18
2022-12-17T06:06:51.601Z,1014.23
2022-12-17T06:09:51.599Z,1014.31
2022-12-17T06:12:51.606Z,1014.33
2022-12-17T06:15:51.617Z,1014.39
2022-12-17T06:18:51.608Z,1014.51
2022-12-17T06:21:51.614Z,1014.51
2022-12-17T06:24:51.626Z,1014.61
2022-12-17T06:27:51.630Z,1014.63
2022-12-17T06:30:51.609Z,1014.62
2022-12-17T06:33:51.601Z,1014.6
2022-12-17T06:36:51.607Z,1014.6
2022-12-17T06:39:51.595Z,1014.59
2022-12-17T06:42:51.590Z,1014.65
2022-12-17T06:45:51.632Z,1014.67
2022-12-17T06:48:51.592Z,1014.7
2022-12-17T06:51:51.583Z,1014.69
2022-12-17T06:54:51.582Z,1014.78
2022-12-17T06:57:51.583Z,1014.82
2022-12-17T07:00:51.604Z,1014.79
2022-12-17T07:03:51.582Z,1014.86
2022-12-17T07:06:51.582Z,1014.88
2022-12-17T07:09:51.577Z,1015
2022-12-17T07:12:51.584Z,1015.07
2022-12-17T07:15:51.578Z,1015.12
2022-12-17T07:18:51.581Z,1015.21
2022-12-17T07:21:51.574Z,1015.23
2022-12-17T07:24:51.570Z,1015.28
2022-12-17T07:27:51.567Z,1015.35
2022-12-17T07:30:55.685Z,1015.41
2022-12-17T07:33:51.571Z,1015.46
2022-12-17T07:36:51.569Z,1015.5
2022-12-17T07:39:51.565Z,1015.54
2022-12-17T07:42:51.570Z,1015.64
2022-12-17T07:45:51.703Z,1015.7
2022-12-17T07:48:51.623Z,1015.73
2022-12-17T07:51:51.563Z,1015.79
2022-12-17T07:54:51.565Z,1015.79
2022-12-17T07:57:51.561Z,1015.8
2022-12-17T08:00:51.620Z,1015.79
2022-12-17T08:03:51.560Z,1015.81
2022-12-17T08:06:53.941Z,1015.94
2022-12-17T08:09:51.560Z,1016.02
2022-12-17T08:12:51.556Z,1016.11
2022-12-17T08:15:51.551Z,1016.1
2022-12-17T08:18:51.548Z,1016.18
2022-12-17T08:21:51.545Z,1016.2
2022-12-17T08:24:51.547Z,1016.19
2022-12-17T08:27:51.548Z,1016.28
2022-12-17T08:30:51.596Z,1016.25
2022-12-17T08:33:51.548Z,1016.29
2022-12-17T08:36:51.551Z,1016.32
2022-12-17T08:39:51.544Z,1016.35
2022-12-17T08:42:51.541Z,1016.37
2022-12-17T08:45:51.625Z,1016.43
2022-12-17T08:48:51.532Z,1016.5
2022-12-17T08:51:51.539Z,1016.48
2022-12-17T08:54:51.534Z,1016.53
2022-12-17T08:57:51.532Z,1016.52
2022-12-17T09:00:51.561Z,1016.54
2022-12-17T09:03:51.539Z,1016.58
2022-12-17T09:06:51.533Z,1016.61
2022-12-17T09:09:51.528Z,1016.68
2022-12-17T09:12:51.538Z,1016.67
2022-12-17T09:15:51.529Z,1016.68
2022-12-17T09:18:51.532Z,1016.71
2022-12-17T09:21:51.522Z,1016.69
2022-12-17T09:24:51.580Z,1016.69
2022-12-17T09:27:51.533Z,1016.71
2022-12-17T09:30:51.558Z,1016.72
2022-12-17T09:33:51.528Z,1016.68
2022-12-17T09:36:51.529Z,1016.71
2022-12-17T09:39:51.532Z,1016.73
2022-12-17T09:42:54.499Z,1016.79
2022-12-17T09:45:51.548Z,1016.83
2022-12-17T09:48:51.520Z,1016.86
2022-12-17T09:51:51.517Z,1016.83
2022-12-17T09:54:54.018Z,1016.91
2022-12-17T09:57:51.518Z,1016.85
2022-12-17T10:00:53.882Z,1016.91
2022-12-17T10:03:51.566Z,1016.93
2022-12-17T10:06:51.512Z,1016.9
2022-12-17T10:09:51.509Z,1016.88
2022-12-17T10:12:51.516Z,1016.89
2022-12-17T10:15:51.571Z,1016.86
2022-12-17T10:18:51.513Z,1016.94
2022-12-17T10:21:51.510Z,1016.95
2022-12-17T10:24:51.517Z,1016.96
2022-12-17T10:27:51.508Z,1017.01
2022-12-17T10:30:51.543Z,1017.01
2022-12-17T10:33:51.502Z,1016.99
2022-12-17T10:36:51.515Z,1017.01
2022-12-17T10:39:51.506Z,1016.96
2022-12-17T10:42:51.500Z,1016.97
2022-12-17T10:45:51.508Z,1016.98
2022-12-17T10:48:51.501Z,1017.02
2022-12-17T10:51:51.496Z,1017.02
2022-12-17T10:54:51.504Z,1017.01
2022-12-17T10:57:51.495Z,1017.07
2022-12-17T11:00:51.503Z,1017.01
2022-12-17T11:03:51.532Z,1017.04
2022-12-17T11:06:51.503Z,1017.06
2022-12-17T11:09:51.499Z,1017.07
2022-12-17T11:12:51.505Z,1017.09
2022-12-17T11:15:51.535Z,1017.13
2022-12-17T11:18:51.518Z,1017.16
2022-12-17T11:21:51.513Z,1017.15
2022-12-17T11:24:51.498Z,1017.13
2022-12-17T11:27:51.492Z,1017.14
2022-12-17T11:30:51.529Z,1017.12
2022-12-17T11:33:51.488Z,1017.18
2022-12-17T11:36:51.494Z,1017.19
2022-12-17T11:39:51.495Z,1017.14
2022-12-17T11:42:51.485Z,1017.19
2022-12-17T11:45:51.486Z,1017.21
2022-12-17T11:48:51.485Z,1017.2
2022-12-17T11:51:51.485Z,1017.21
2022-12-17T11:54:51.481Z,1017.3
2022-12-17T11:57:51.481Z,1017.27
2022-12-17T12:00:51.479Z,1017.24
2022-12-17T12:03:51.530Z,1017.24
2022-12-17T12:06:51.478Z,1017.26
2022-12-17T12:09:51.472Z,1017.22
2022-12-17T12:12:51.473Z,1017.21
2022-12-17T12:15:51.547Z,1017.23
2022-12-17T12:18:51.472Z,1017.21
2022-12-17T12:21:51.466Z,1017.26
2022-12-17T12:24:51.473Z,1017.3
2022-12-17T12:27:51.463Z,1017.35
2022-12-17T12:30:51.476Z,1017.33
2022-12-17T12:33:51.462Z,1017.29
2022-12-17T12:36:51.462Z,1017.29
2022-12-17T12:39:51.459Z,1017.3
2022-12-17T12:42:51.458Z,1017.31
2022-12-17T12:45:51.494Z,1017.25
2022-12-17T12:48:51.450Z,1017.27
2022-12-17T12:51:51.454Z,1017.28
2022-12-17T12:54:51.455Z,1017.21
2022-12-17T12:57:51.472Z,1017.19
2022-12-17T13:00:51.508Z,1017.24
2022-12-17T13:03:51.469Z,1017.27
2022-12-17T13:06:51.461Z,1017.28
2022-12-17T13:09:51.467Z,1017.23
2022-12-17T13:12:51.467Z,1017.18
2022-12-17T13:15:51.474Z,1017.14
2022-12-17T13:18:51.460Z,1017.15
2022-12-17T13:21:51.462Z,1017.11
2022-12-17T13:24:51.478Z,1017.05
2022-12-17T13:27:51.460Z,1017.03
2022-12-17T13:30:51.459Z,1017.02
2022-12-17T13:33:51.458Z,1017.15
2022-12-17T13:36:51.455Z,1017.15
2022-12-17T13:39:51.842Z,1017.16
2022-12-17T13:42:51.747Z,1017.25
2022-12-17T13:45:51.765Z,1017.31
2022-12-17T13:48:51.749Z,1017.3
2022-12-17T13:51:51.738Z,1017.3
2022-12-17T13:54:51.744Z,1017.27
2022-12-17T13:57:51.734Z,1017.3
2022-12-17T14:00:51.784Z,1017.26
2022-12-17T14:06:51.733Z,1017.29
2022-12-17T14:09:51.732Z,1017.21
2022-12-17T14:12:51.734Z,1017.21
2022-12-17T14:15:51.727Z,1017.27
2022-12-17T14:18:51.728Z,1017.21
2022-12-17T14:21:51.732Z,1017.2
2022-12-17T14:24:51.727Z,1017.28
2022-12-17T14:27:51.723Z,1017.29
2022-12-17T14:31:24.713Z,1017.32
2022-12-17T14:33:51.727Z,1017.37
2022-12-17T14:36:51.727Z,1017.35
2022-12-17T14:39:51.722Z,1017.37
2022-12-17T14:42:51.716Z,1017.41
2022-12-17T14:45:51.745Z,1017.43
2022-12-17T14:48:51.712Z,1017.39
2022-12-17T14:51:51.714Z,1017.38
2022-12-17T14:54:51.714Z,1017.39
2022-12-17T14:57:51.714Z,1017.42
2022-12-17T15:00:51.707Z,1017.48
2022-12-17T15:03:51.754Z,1017.49
2022-12-17T15:06:51.706Z,1017.53
2022-12-17T15:09:51.714Z,1017.58
2022-12-17T15:12:51.716Z,1017.57
2022-12-17T15:15:51.705Z,1017.61
2022-12-17T15:18:51.702Z,1017.6
2022-12-17T15:21:51.712Z,1017.65
2022-12-17T15:24:51.706Z,1017.63
2022-12-17T15:27:51.703Z,1017.63
2022-12-17T15:30:51.777Z,1017.63
2022-12-17T15:33:51.707Z,1017.72
2022-12-17T15:36:51.713Z,1017.74
2022-12-17T15:39:51.697Z,1017.7
2022-12-17T15:42:51.703Z,1017.75
2022-12-17T15:45:51.731Z,1017.83
2022-12-17T15:48:51.697Z,1017.82
2022-12-17T15:51:51.695Z,1017.83
2022-12-17T15:54:51.695Z,1017.86
2022-12-17T15:57:51.696Z,1017.83
2022-12-17T16:00:51.696Z,1017.81
2022-12-17T16:03:51.776Z,1017.83
2022-12-17T16:06:51.696Z,1017.83
2022-12-17T16:09:51.699Z,1017.83
2022-12-17T16:12:51.696Z,1017.9
2022-12-17T16:15:51.753Z,1017.9
2022-12-17T16:18:51.700Z,1017.91
2022-12-17T16:21:51.689Z,1017.97
2022-12-17T16:24:51.696Z,1017.98
2022-12-17T16:27:51.691Z,1018.02
2022-12-17T16:30:51.749Z,1018.04
2022-12-17T16:33:51.697Z,1018.13
2022-12-17T16:36:51.686Z,1018.13
2022-12-17T16:39:55.281Z,1018.16
2022-12-17T16:42:51.690Z,1018.16
2022-12-17T16:45:51.687Z,1018.18
2022-12-17T16:48:51.683Z,1018.23
2022-12-17T16:51:51.683Z,1018.19
2022-12-17T16:54:51.693Z,1018.17
2022-12-17T16:57:51.677Z,1018.21
2022-12-17T17:00:51.677Z,1018.27
2022-12-17T17:03:51.740Z,1018.28
2022-12-17T17:06:51.675Z,1018.35
2022-12-17T17:09:51.672Z,1018.38
2022-12-17T17:12:51.668Z,1018.4
2022-12-17T17:15:51.715Z,1018.45
2022-12-17T17:18:51.664Z,1018.48
2022-12-17T17:21:51.698Z,1018.43
2022-12-17T17:24:51.679Z,1018.41
2022-12-17T17:27:51.675Z,1018.44
2022-12-17T17:30:51.696Z,1018.45
2022-12-17T17:33:51.666Z,1018.44
2022-12-17T17:36:51.657Z,1018.48
2022-12-17T17:39:51.668Z,1018.5
2022-12-17T17:42:51.834Z,1018.52
2022-12-17T17:45:51.664Z,1018.52
2022-12-17T17:48:55.353Z,1018.56
2022-12-17T17:52:08.754Z,1018.51
2022-12-17T17:54:51.655Z,1018.53
2022-12-17T17:57:51.660Z,1018.52
2022-12-17T18:00:51.654Z,1018.54
2022-12-17T18:03:51.714Z,1018.56
2022-12-17T18:07:24.006Z,1018.56
2022-12-17T18:09:51.657Z,1018.57
2022-12-17T18:12:51.646Z,1018.58
2022-12-17T18:15:51.677Z,1018.61
2022-12-17T18:18:51.642Z,1018.65
2022-12-17T18:21:51.652Z,1018.64
2022-12-17T18:24:51.648Z,1018.7
2022-12-17T18:27:51.642Z,1018.71
2022-12-17T18:30:51.645Z,1018.73
2022-12-17T18:33:51.652Z,1018.73
2022-12-17T18:36:51.642Z,1018.78
2022-12-17T18:39:51.707Z,1018.77
2022-12-17T18:42:51.645Z,1018.81
2022-12-17T18:45:51.638Z,1018.82
2022-12-17T18:48:51.645Z,1018.8
2022-12-17T18:51:51.643Z,1018.82
2022-12-17T18:54:51.642Z,1018.88
2022-12-17T18:57:51.635Z,1018.86
2022-12-17T19:00:51.670Z,1018.91
2022-12-17T19:03:51.630Z,1018.9
2022-12-17T19:06:51.634Z,1018.89
2022-12-17T19:09:51.634Z,1018.98
2022-12-17T19:12:51.632Z,1018.99
2022-12-17T19:15:51.631Z,1018.94
2022-12-17T19:18:51.629Z,1018.9
2022-12-17T19:21:51.629Z,1018.93
2022-12-17T19:24:51.630Z,1018.96
2022-12-17T19:27:51.621Z,1018.96
2022-12-17T19:30:51.623Z,1018.94
2022-12-17T19:33:51.618Z,1018.95
2022-12-17T19:36:51.620Z,1019
2022-12-17T19:39:51.621Z,1019.02
2022-12-17T19:42:51.627Z,1019.05
2022-12-17T19:45:51.651Z,1019.05
2022-12-17T19:48:51.828Z,1019.08
2022-12-17T19:51:51.774Z,1019.07
2022-12-17T19:54:51.610Z,1019.06
2022-12-17T19:57:51.611Z,1019
2022-12-17T20:00:51.619Z,1019.1
2022-12-17T20:03:51.619Z,1019.06
2022-12-17T20:06:51.611Z,1019.08
2022-12-17T20:09:51.609Z,1019.15
2022-12-17T20:12:51.603Z,1019.09
2022-12-17T20:15:51.602Z,1019.08
2022-12-17T20:18:51.607Z,1019.14
2022-12-17T20:21:51.607Z,1019.09
2022-12-17T20:24:51.611Z,1019.15
2022-12-17T20:27:51.602Z,1019.25
2022-12-17T20:30:51.611Z,1019.3
2022-12-17T20:33:51.633Z,1019.37
2022-12-17T20:36:51.608Z,1019.4
2022-12-17T20:39:51.597Z,1019.37
2022-12-17T20:42:51.603Z,1019.42
2022-12-17T20:45:51.679Z,1019.47
2022-12-17T20:48:51.599Z,1019.53
2022-12-17T20:51:51.597Z,1019.51
2022-12-17T20:54:51.597Z,1019.51
2022-12-17T20:57:51.589Z,1019.53
2022-12-17T21:00:51.620Z,1019.55
2022-12-17T21:03:51.639Z,1019.5
2022-12-17T21:06:51.585Z,1019.45
2022-12-17T21:09:51.585Z,1019.48
2022-12-17T21:12:51.620Z,1019.5
2022-12-17T21:15:51.635Z,1019.52
2022-12-17T21:18:51.585Z,1019.46
2022-12-17T21:21:51.609Z,1019.45
2022-12-17T21:24:51.580Z,1019.49
2022-12-17T21:27:51.576Z,1019.47
2022-12-17T21:30:51.661Z,1019.52
2022-12-17T21:33:51.572Z,1019.56
2022-12-17T21:36:51.580Z,1019.61
2022-12-17T21:39:55.192Z,1019.59
2022-12-17T21:42:51.577Z,1019.66
2022-12-17T21:45:51.626Z,1019.75
2022-12-17T21:48:51.568Z,1019.73
2022-12-17T21:51:51.561Z,1019.78
2022-12-17T21:54:51.571Z,1019.81
2022-12-17T21:57:51.557Z,1019.79
2022-12-17T22:00:51.807Z,1019.87
2022-12-17T22:03:53.148Z,1019.9
2022-12-17T22:06:57.627Z,1019.91
2022-12-17T22:10:10.188Z,1019.91
2022-12-17T22:12:51.809Z,1019.91
2022-12-17T22:15:51.862Z,1019.9
2022-12-17T22:18:51.798Z,1019.81
2022-12-17T22:21:52.907Z,1019.75
2022-12-17T22:24:51.819Z,1019.8
2022-12-17T22:27:51.785Z,1019.91
2022-12-17T22:30:51.856Z,1019.85
2022-12-17T22:34:16.959Z,1019.77
2022-12-17T22:37:33.845Z,1019.76
2022-12-17T22:40:34.831Z,1019.76
2022-12-17T22:44:32.663Z,1019.83
2022-12-17T22:45:51.822Z,1019.87
2022-12-17T22:48:51.776Z,1019.79
2022-12-17T22:51:51.773Z,1019.79
2022-12-17T22:54:51.834Z,1019.79
2022-12-17T22:57:51.789Z,1019.78
2022-12-17T23:00:51.822Z,1019.81
2022-12-17T23:03:51.924Z,1019.82
2022-12-17T23:06:51.799Z,1019.72
2022-12-17T23:09:51.793Z,1019.79
2022-12-17T23:12:51.788Z,1019.83
2022-12-17T23:15:51.858Z,1019.8
2022-12-17T23:18:51.785Z,1019.8
2022-12-17T23:21:51.798Z,1019.71
2022-12-17T23:24:51.788Z,1019.67
2022-12-17T23:27:51.786Z,1019.66
2022-12-17T23:30:51.797Z,1019.72
2022-12-17T23:33:51.783Z,1019.82
2022-12-17T23:36:51.784Z,1019.76
2022-12-17T23:39:51.784Z,1019.74
2022-12-17T23:42:51.777Z,1019.82
2022-12-17T23:45:51.796Z,1019.84
2022-12-17T23:48:51.808Z,1019.81
2022-12-17T23:51:51.783Z,1019.79
2022-12-17T23:54:51.786Z,1019.88
2022-12-17T23:57:51.802Z,1019.93
